Time;durP1;ratioP1;P1;durP2;ratioP2;P2;SDS_P1;SDS_P2;PMS_P1;PMS_P2;Temp;Humidity;BMP_temperature;BMP_pressure;BME280_temperature;BME280_humidity;BME280_pressure;Samples;Min_cycle;Max_cycle;Signal;HPM_P1;HPM_P2
2022/03/03 00:00:22;;;;;;;24.25;16.77;;;7.20;99.90;;;;;;5032304;28;20026;-90
2022/03/03 00:02:48;;;;;;;22.67;16.33;;;7.60;99.90;;;;;;5033666;28;20041;-91
2022/03/03 00:05:13;;;;;;;25.02;17.13;;;7.10;99.90;;;;;;5036162;28;20116;-90
2022/03/03 00:07:40;;;;;;;24.35;17.83;;;7.00;99.90;;;;;;5035998;28;20504;-90
2022/03/03 00:10:07;;;;;;;23.27;17.60;;;7.30;99.90;;;;;;5035733;28;20030;-90
2022/03/03 00:12:33;;;;;;;22.92;17.13;;;6.80;99.90;;;;;;5019802;28;20041;-90
2022/03/03 00:14:58;;;;;;;24.35;17.65;;;6.80;99.90;;;;;;5035486;28;20103;-89
2022/03/03 00:17:24;;;;;;;26.77;17.65;;;6.70;99.90;;;;;;5035788;28;20477;-90
2022/03/03 00:19:50;;;;;;;26.95;18.67;;;6.80;99.90;;;;;;5035518;28;20026;-90
2022/03/03 00:22:16;;;;;;;26.67;17.52;;;6.80;99.90;;;;;;5035633;28;20033;-89
2022/03/03 00:24:42;;;;;;;25.88;17.58;;;6.50;1.00;;;;;;5035772;28;20028;-90
2022/03/03 00:27:08;;;;;;;26.48;18.25;;;6.70;99.90;;;;;;5017819;28;20036;-90
2022/03/03 00:29:34;;;;;;;25.90;17.80;;;6.90;99.90;;;;;;5019307;28;20025;-89
2022/03/03 00:31:59;;;;;;;26.58;18.10;;;7.00;99.90;;;;;;5035381;28;20042;-90
2022/03/03 00:34:25;;;;;;;25.48;18.65;;;6.60;99.90;;;;;;5035188;28;20025;-89
2022/03/03 00:36:51;;;;;;;24.90;18.52;;;6.90;99.90;;;;;;5035028;28;20108;-90
2022/03/03 00:39:16;;;;;;;25.65;17.63;;;7.10;99.90;;;;;;5035504;28;20401;-90
2022/03/03 00:41:42;;;;;;;25.63;17.27;;;7.00;99.90;;;;;;5034954;28;20037;-89
2022/03/03 00:44:09;;;;;;;22.50;17.13;;;6.50;99.90;;;;;;5017699;28;20052;-89
2022/03/03 00:46:36;;;;;;;26.13;17.58;;;6.90;99.90;;;;;;5035362;28;20492;-90
2022/03/03 00:49:03;;;;;;;24.60;16.88;;;6.70;99.90;;;;;;5034384;28;20028;-90
2022/03/03 00:51:29;;;;;;;22.17;17.55;;;6.40;99.90;;;;;;5033246;28;20052;-90
2022/03/03 00:53:55;;;;;;;22.08;17.17;;;6.90;1.00;;;;;;5034559;28;20033;-90
2022/03/03 00:56:21;;;;;;;20.70;16.95;;;6.40;99.90;;;;;;5035454;28;20029;-89
2022/03/03 00:58:47;;;;;;;23.35;17.73;;;6.90;99.90;;;;;;5034895;28;20378;-90
2022/03/03 01:01:12;;;;;;;27.13;18.17;;;6.60;99.90;;;;;;5034463;28;20519;-90
2022/03/03 01:03:38;;;;;;;26.40;17.58;;;6.50;99.90;;;;;;5034795;28;20045;-90
2022/03/03 01:06:04;;;;;;;26.23;19.17;;;6.80;99.90;;;;;;5034280;28;20026;-90
2022/03/03 01:08:30;;;;;;;24.33;18.23;;;6.70;99.90;;;;;;5029996;28;20036;-90
2022/03/03 01:10:55;;;;;;;24.52;19.00;;;6.70;99.90;;;;;;5034439;28;20083;-90
2022/03/03 01:13:22;;;;;;;25.77;18.52;;;6.20;99.90;;;;;;5016217;28;20021;-90
2022/03/03 01:15:49;;;;;;;28.27;18.35;;;6.20;99.90;;;;;;5017106;28;20053;-90
2022/03/03 01:18:15;;;;;;;24.77;17.45;;;6.40;99.90;;;;;;5023532;28;20732;-90
2022/03/03 01:20:40;;;;;;;25.50;17.42;;;6.40;1.00;;;;;;5025267;28;20659;-89
2022/03/03 01:23:06;;;;;;;28.05;17.90;;;6.60;1.00;;;;;;5034351;28;20034;-90
2022/03/03 01:25:32;;;;;;;25.48;17.60;;;6.30;99.90;;;;;;5033795;28;20405;-90
2022/03/03 01:27:57;;;;;;;23.55;17.02;;;6.50;99.90;;;;;;5034655;28;20029;-90
2022/03/03 01:30:24;;;;;;;25.75;18.23;;;6.10;99.90;;;;;;5034566;28;20555;-90
2022/03/03 01:32:49;;;;;;;27.38;17.83;;;6.10;99.90;;;;;;5033750;28;20025;-90
2022/03/03 01:35:15;;;;;;;24.83;18.15;;;6.20;99.90;;;;;;5034220;28;20021;-90
2022/03/03 01:37:40;;;;;;;24.08;18.63;;;6.30;99.90;;;;;;5013172;28;20398;-90
2022/03/03 01:40:07;;;;;;;26.33;17.90;;;6.80;99.90;;;;;;5014371;28;20080;-90
2022/03/03 01:42:33;;;;;;;26.60;18.98;;;6.40;99.90;;;;;;5014569;28;20037;-90
2022/03/03 01:44:59;;;;;;;23.92;17.15;;;6.30;99.90;;;;;;5014037;28;20402;-89
2022/03/03 01:47:26;;;;;;;23.85;17.30;;;6.40;99.90;;;;;;5014052;28;20155;-90
2022/03/03 01:49:55;;;;;;;23.67;16.65;;;6.50;1.00;;;;;;5014128;28;20034;-90
2022/03/03 01:52:20;;;;;;;24.10;17.70;;;6.20;99.90;;;;;;5013810;28;20100;-90
2022/03/03 01:54:47;;;;;;;26.02;17.02;;;6.00;99.90;;;;;;5014110;28;20494;-90
2022/03/03 01:57:15;;;;;;;22.13;16.95;;;6.00;99.90;;;;;;5013977;28;20038;-90
2022/03/03 01:59:41;;;;;;;25.42;17.95;;;6.40;1.00;;;;;;5012002;28;20029;-89
2022/03/03 02:02:08;;;;;;;27.42;17.90;;;6.30;99.90;;;;;;5013867;28;20041;-90
2022/03/03 02:04:34;;;;;;;25.58;18.13;;;6.40;99.90;;;;;;5013874;28;20029;-90
2022/03/03 02:07:00;;;;;;;28.08;20.30;;;6.40;99.90;;;;;;5013616;28;20026;-90
2022/03/03 02:09:26;;;;;;;29.25;21.20;;;5.90;1.00;;;;;;5012844;28;20471;-90
2022/03/03 02:11:52;;;;;;;30.30;20.45;;;6.00;99.90;;;;;;5012544;28;20478;-89
2022/03/03 02:14:18;;;;;;;28.10;18.50;;;6.50;99.90;;;;;;5013627;28;20108;-90
2022/03/03 02:16:44;;;;;;;27.88;18.20;;;6.10;99.90;;;;;;5013224;28;20490;-90
2022/03/03 02:19:15;;;;;;;27.90;18.33;;;6.20;99.90;;;;;;5013600;28;20482;-90
2022/03/03 02:21:40;;;;;;;22.42;17.35;;;6.60;1.00;;;;;;5013636;28;20080;-89
2022/03/03 02:24:07;;;;;;;25.20;17.80;;;6.50;99.90;;;;;;5013433;28;20421;-90
2022/03/03 02:26:33;;;;;;;25.10;17.60;;;6.30;99.90;;;;;;5013247;28;20025;-90
2022/03/03 02:28:58;;;;;;;26.27;17.95;;;6.30;99.90;;;;;;5012792;28;20569;-90
2022/03/03 02:31:24;;;;;;;23.48;17.02;;;6.30;99.90;;;;;;5013436;28;20026;-90
2022/03/03 02:33:50;;;;;;;24.13;17.88;;;6.50;99.90;;;;;;5013242;28;20034;-90
2022/03/03 02:36:29;;;;;;;24.17;17.90;;;6.70;99.90;;;;;;5012302;28;20440;-89
2022/03/03 02:39:00;;;;;;;26.35;17.17;;;6.70;1.00;;;;;;5030507;28;20473;-90
2022/03/03 02:41:27;;;;;;;31.27;19.40;;;6.20;1.00;;;;;;5032841;28;20083;-89
2022/03/03 02:43:53;;;;;;;26.58;18.17;;;6.20;1.00;;;;;;5032702;28;20041;-89
2022/03/03 02:46:19;;;;;;;24.55;18.77;;;6.20;1.00;;;;;;5032816;28;20032;-90
2022/03/03 02:48:46;;;;;;;25.65;18.33;;;6.10;99.90;;;;;;5033391;28;20025;-90
2022/03/03 02:51:12;;;;;;;25.73;17.10;;;6.20;1.00;;;;;;5032666;28;20037;-89
2022/03/03 02:53:38;;;;;;;21.20;17.00;;;6.00;1.00;;;;;;5032567;28;20029;-90
2022/03/03 02:56:04;;;;;;;23.45;17.67;;;6.20;99.90;;;;;;5033019;28;20109;-90
2022/03/03 02:58:30;;;;;;;23.90;16.92;;;6.20;1.00;;;;;;5015593;28;20029;-90
2022/03/03 03:00:57;;;;;;;23.40;17.52;;;6.50;1.00;;;;;;5032359;28;20029;-90
2022/03/03 03:03:23;;;;;;;25.27;16.95;;;6.40;1.00;;;;;;5015677;28;20393;-89
2022/03/03 03:05:49;;;;;;;23.67;16.90;;;6.50;99.90;;;;;;5032560;28;20140;-90
2022/03/03 03:08:15;;;;;;;22.77;17.33;;;6.40;99.90;;;;;;5016662;28;20033;-90
2022/03/03 03:10:41;;;;;;;25.52;17.48;;;6.20;99.90;;;;;;5016994;28;20064;-90
2022/03/03 03:13:08;;;;;;;25.55;16.65;;;6.50;1.00;;;;;;5012622;28;20457;-90
2022/03/03 03:15:35;;;;;;;25.17;17.25;;;6.30;1.00;;;;;;5032759;28;20025;-89
2022/03/03 03:18:12;;;;;;;23.55;17.40;;;6.70;99.90;;;;;;5032612;28;20030;-90
2022/03/03 03:20:43;;;;;;;24.88;16.90;;;6.50;1.00;;;;;;5016567;28;20026;-90
2022/03/03 03:23:13;;;;;;;22.70;17.08;;;6.60;1.00;;;;;;5032865;28;20068;-90
2022/03/03 03:25:43;;;;;;;21.92;16.13;;;6.10;1.00;;;;;;5014942;28;20026;-90
2022/03/03 03:28:14;;;;;;;24.05;16.55;;;6.20;1.00;;;;;;5031782;28;20037;-90
2022/03/03 03:30:41;;;;;;;23.70;16.27;;;6.60;1.00;;;;;;5032331;28;20037;-90
2022/03/03 03:33:07;;;;;;;22.33;15.93;;;6.50;1.00;;;;;;5031590;28;20509;-90
2022/03/03 03:35:33;;;;;;;21.98;16.77;;;6.50;1.00;;;;;;5032372;28;20029;-90
2022/03/03 03:37:59;;;;;;;23.17;16.98;;;6.50;1.00;;;;;;5014043;28;20053;-90
2022/03/03 03:40:25;;;;;;;21.75;16.05;;;6.40;1.00;;;;;;5032232;28;20379;-90
2022/03/03 03:42:51;;;;;;;26.40;17.17;;;5.90;1.00;;;;;;5031583;28;20167;-90
2022/03/03 03:45:17;;;;;;;22.50;16.50;;;5.80;99.90;;;;;;5032481;28;20591;-89
2022/03/03 03:47:43;;;;;;;23.23;16.42;;;6.40;1.00;;;;;;5013758;28;20021;-90
2022/03/03 03:50:12;;;;;;;26.05;17.33;;;6.00;1.00;;;;;;5031700;28;20083;-90
2022/03/03 03:52:39;;;;;;;22.05;15.65;;;6.40;1.00;;;;;;5031718;28;20436;-90
2022/03/03 03:55:07;;;;;;;23.15;16.40;;;5.90;1.00;;;;;;5031671;28;20029;-89
2022/03/03 03:57:32;;;;;;;22.63;15.85;;;6.00;1.00;;;;;;5015171;28;20375;-89
2022/03/03 03:59:59;;;;;;;23.88;16.88;;;5.90;99.90;;;;;;5031965;28;20035;-89
2022/03/03 04:02:24;;;;;;;21.77;15.95;;;6.00;99.90;;;;;;5031890;28;20046;-90
2022/03/03 04:04:50;;;;;;;24.58;15.95;;;6.30;99.90;;;;;;5014048;28;20414;-90
2022/03/03 04:07:16;;;;;;;23.50;16.70;;;6.40;1.00;;;;;;5031577;28;20022;-90
2022/03/03 04:09:42;;;;;;;25.33;16.92;;;6.00;99.90;;;;;;5014458;28;20034;-90
2022/03/03 04:12:08;;;;;;;25.40;18.77;;;6.10;99.90;;;;;;5031758;28;20034;-89
2022/03/03 04:14:33;;;;;;;24.85;17.60;;;6.10;1.00;;;;;;5031892;28;20018;-90
2022/03/03 04:16:59;;;;;;;25.52;16.70;;;6.10;99.90;;;;;;5016093;28;20040;-90
2022/03/03 04:19:25;;;;;;;22.83;17.27;;;5.90;99.90;;;;;;5032265;28;20112;-89
2022/03/03 04:21:51;;;;;;;26.52;16.83;;;6.30;99.90;;;;;;5030366;28;20477;-88
2022/03/03 04:24:16;;;;;;;22.92;16.60;;;5.80;99.90;;;;;;5031489;28;20033;-89
2022/03/03 04:26:42;;;;;;;21.92;15.82;;;5.70;1.00;;;;;;5031458;28;20086;-89
2022/03/03 04:29:08;;;;;;;24.90;16.15;;;6.10;99.90;;;;;;5031404;28;20044;-89
2022/03/03 04:31:33;;;;;;;21.75;16.45;;;5.80;1.00;;;;;;5014417;28;20466;-90
2022/03/03 04:33:59;;;;;;;20.13;16.73;;;6.00;99.90;;;;;;5031166;28;20041;-89
2022/03/03 04:36:25;;;;;;;23.83;16.52;;;5.50;1.00;;;;;;5031884;28;20021;-90
2022/03/03 04:38:51;;;;;;;24.05;16.75;;;5.50;99.90;;;;;;5014585;28;20528;-89
2022/03/03 04:41:17;;;;;;;25.35;17.33;;;5.80;1.00;;;;;;5031396;28;20112;-89
2022/03/03 04:43:43;;;;;;;22.30;16.77;;;6.00;1.00;;;;;;5031214;28;20033;-89
2022/03/03 04:46:09;;;;;;;23.88;16.42;;;5.40;1.00;;;;;;5031556;28;20049;-89
2022/03/03 04:48:35;;;;;;;22.65;17.13;;;5.70;1.00;;;;;;5015719;28;20701;-89
2022/03/03 04:51:02;;;;;;;22.58;17.25;;;5.40;1.00;;;;;;5035132;28;20033;-90
2022/03/03 04:53:28;;;;;;;24.42;17.20;;;5.30;1.00;;;;;;5035005;28;20107;-89
2022/03/03 04:55:54;;;;;;;27.17;17.98;;;5.70;1.00;;;;;;5034254;28;20508;-89
2022/03/03 04:58:20;;;;;;;22.08;16.55;;;5.70;1.00;;;;;;5017412;28;20021;-90
2022/03/03 05:00:47;;;;;;;24.40;17.77;;;5.30;1.00;;;;;;5017379;28;20035;-89
2022/03/03 05:03:13;;;;;;;25.77;17.58;;;5.40;1.00;;;;;;5034526;28;20114;-89
2022/03/03 05:05:38;;;;;;;24.80;16.67;;;5.30;1.00;;;;;;5034890;28;20072;-90
2022/03/03 05:08:04;;;;;;;25.10;17.33;;;5.10;1.00;;;;;;5034288;28;20052;-89
2022/03/03 05:10:30;;;;;;;23.80;16.58;;;5.10;1.00;;;;;;5034266;28;20524;-90
2022/03/03 05:12:57;;;;;;;23.65;17.88;;;5.20;1.00;;;;;;5034571;28;20071;-90
2022/03/03 05:15:23;;;;;;;22.38;16.55;;;5.70;1.00;;;;;;5034587;28;20021;-90
2022/03/03 05:17:49;;;;;;;27.13;18.10;;;5.40;1.00;;;;;;5018487;28;20095;-90
2022/03/03 05:20:14;;;;;;;22.65;17.58;;;5.30;1.00;;;;;;5015292;28;20482;-89
2022/03/03 05:22:41;;;;;;;27.20;17.45;;;5.40;1.00;;;;;;5034147;28;20037;-90
2022/03/03 05:25:07;;;;;;;22.85;16.88;;;5.70;1.00;;;;;;5034319;28;20394;-89
2022/03/03 05:27:33;;;;;;;28.42;17.55;;;5.40;1.00;;;;;;5035059;28;20544;-90
2022/03/03 05:29:59;;;;;;;27.10;16.30;;;5.10;1.00;;;;;;5034481;28;20034;-90
2022/03/03 05:32:25;;;;;;;24.38;16.52;;;5.60;1.00;;;;;;5034351;28;20109;-90
2022/03/03 05:34:51;;;;;;;22.30;16.33;;;5.20;1.00;;;;;;5033853;28;20029;-90
2022/03/03 05:37:24;;;;;;;23.63;16.23;;;5.60;1.00;;;;;;5034221;28;20036;-89
2022/03/03 05:39:51;;;;;;;25.08;17.58;;;5.30;1.00;;;;;;5030619;28;20038;-90
2022/03/03 05:42:19;;;;;;;23.63;17.20;;;5.70;1.00;;;;;;5034211;28;20041;-90
2022/03/03 05:44:46;;;;;;;23.17;16.20;;;5.40;1.00;;;;;;5034421;28;20029;-90
2022/03/03 05:47:12;;;;;;;20.08;16.25;;;5.30;1.00;;;;;;5034099;28;20100;-89
2022/03/03 05:49:39;;;;;;;22.17;16.83;;;5.50;1.00;;;;;;5017048;28;20038;-89
2022/03/03 05:52:05;;;;;;;24.60;17.27;;;5.50;1.00;;;;;;5031882;28;20106;-88
2022/03/03 05:54:31;;;;;;;26.27;17.60;;;5.10;1.00;;;;;;5033861;28;20065;-89
2022/03/03 05:56:59;;;;;;;29.05;16.55;;;5.10;1.00;;;;;;5016574;28;20086;-90
2022/03/03 05:59:25;;;;;;;23.38;17.10;;;5.10;1.00;;;;;;5032395;28;20034;-89
2022/03/03 06:01:51;;;;;;;25.73;16.88;;;5.00;1.00;;;;;;5033595;28;20037;-90
2022/03/03 06:04:16;;;;;;;23.48;17.08;;;5.00;1.00;;;;;;5033642;28;20127;-89
2022/03/03 06:06:54;;;;;;;26.25;16.70;;;5.00;1.00;;;;;;5033809;28;20025;-89
2022/03/03 06:09:24;;;;;;;26.80;16.65;;;5.20;1.00;;;;;;5032531;28;20037;-89
2022/03/03 06:12:00;;;;;;;25.58;17.55;;;5.30;1.00;;;;;;5033726;28;20456;-89
2022/03/03 06:14:53;;;;;;;25.25;16.25;;;5.30;1.00;;;;;;5033829;28;20037;-90
2022/03/03 06:17:24;;;;;;;22.92;15.90;;;5.00;1.00;;;;;;5030439;28;20037;-89
2022/03/03 06:19:52;;;;;;;22.83;16.38;;;4.90;1.00;;;;;;5033165;28;20812;-90
2022/03/03 06:22:18;;;;;;;26.02;16.63;;;5.30;1.00;;;;;;5032969;28;20033;-90
2022/03/03 06:24:44;;;;;;;24.83;16.25;;;5.00;1.00;;;;;;5034142;28;20030;-89
2022/03/03 06:27:09;;;;;;;24.80;16.63;;;5.10;1.00;;;;;;5024921;28;20025;-90
2022/03/03 06:29:38;;;;;;;24.88;17.00;;;4.90;1.00;;;;;;5033738;28;20029;-90
2022/03/03 06:32:04;;;;;;;24.80;16.50;;;5.10;1.00;;;;;;5032730;28;20029;-89
2022/03/03 06:34:30;;;;;;;23.63;16.60;;;5.00;1.00;;;;;;5016365;28;20926;-90
2022/03/03 06:36:56;;;;;;;29.80;17.17;;;5.00;1.00;;;;;;5032823;28;20022;-89
2022/03/03 06:39:22;;;;;;;28.58;17.85;;;5.00;1.00;;;;;;5033336;28;20514;-89
2022/03/03 06:41:48;;;;;;;22.25;16.38;;;5.00;1.00;;;;;;5037226;28;20030;-89
2022/03/03 06:44:14;;;;;;;24.85;17.30;;;5.00;1.00;;;;;;5033162;28;20029;-90
2022/03/03 06:46:40;;;;;;;24.60;16.88;;;5.10;1.00;;;;;;5015818;28;20036;-89
2022/03/03 06:49:06;;;;;;;31.13;17.70;;;5.20;1.00;;;;;;5032212;28;20027;-88
2022/03/03 06:51:40;;;;;;;27.27;17.90;;;5.10;1.00;;;;;;5033064;28;20033;-89
2022/03/03 06:54:10;;;;;;;24.98;17.00;;;5.50;1.00;;;;;;5032275;28;20040;-89
2022/03/03 06:56:51;;;;;;;29.73;17.85;;;5.00;1.00;;;;;;5032240;28;20133;-90
2022/03/03 06:59:21;;;;;;;26.80;17.77;;;5.10;1.00;;;;;;5032847;28;20029;-90
2022/03/03 07:01:48;;;;;;;23.30;17.20;;;5.50;1.00;;;;;;5031790;28;20033;-89
2022/03/03 07:04:15;;;;;;;26.98;17.08;;;5.20;1.00;;;;;;5032368;28;20025;-90
2022/03/03 07:06:42;;;;;;;27.13;17.25;;;5.20;1.00;;;;;;5032414;28;20026;-89
2022/03/03 07:09:09;;;;;;;25.15;17.08;;;5.80;1.00;;;;;;5032473;28;20025;-90
2022/03/03 07:11:37;;;;;;;31.75;18.13;;;5.40;1.00;;;;;;5030870;28;20409;-89
2022/03/03 07:14:03;;;;;;;29.10;17.65;;;5.40;1.00;;;;;;5020456;28;20026;-90
2022/03/03 07:16:45;;;;;;;27.42;18.20;;;5.80;1.00;;;;;;5029822;28;20036;-89
2022/03/03 07:19:26;;;;;;;30.70;18.20;;;5.50;1.00;;;;;;5032148;28;20033;-89
2022/03/03 07:22:16;;;;;;;23.80;17.23;;;6.00;1.00;;;;;;5029040;28;20029;-89
2022/03/03 07:25:11;;;;;;;24.02;16.75;;;5.80;1.00;;;;;;5031784;28;20124;-89
2022/03/03 07:27:45;;;;;;;24.20;15.95;;;5.80;1.00;;;;;;5030071;28;20053;-89
2022/03/03 07:30:15;;;;;;;24.60;16.45;;;5.80;1.00;;;;;;5031653;28;20025;-90
2022/03/03 07:32:52;;;;;;;26.40;17.25;;;5.90;1.00;;;;;;5031387;28;20030;-90
2022/03/03 07:35:20;;;;;;;23.52;17.85;;;5.90;1.00;;;;;;5031361;28;20087;-89
2022/03/03 07:37:58;;;;;;;27.02;17.77;;;6.30;1.00;;;;;;5031425;28;20049;-89
2022/03/03 07:40:33;;;;;;;25.42;18.23;;;6.00;1.00;;;;;;5031545;28;20032;-89
2022/03/03 07:43:00;;;;;;;23.75;17.13;;;6.00;1.00;;;;;;5031636;28;20045;-90
2022/03/03 07:45:27;;;;;;;31.15;17.30;;;6.40;1.00;;;;;;5031962;28;20437;-86
2022/03/03 07:47:57;;;;;;;21.83;17.00;;;6.30;1.00;;;;;;5030973;28;20037;-88
2022/03/03 07:50:24;;;;;;;23.98;17.10;;;6.90;1.00;;;;;;5031100;28;20022;-88
2022/03/03 07:52:51;;;;;;;25.08;16.83;;;7.10;1.00;;;;;;5015527;28;20409;-87
2022/03/03 07:55:17;;;;;;;24.42;18.10;;;7.00;1.00;;;;;;5015673;28;20021;-90
2022/03/03 07:57:58;;;;;;;25.55;16.83;;;7.10;99.90;;;;;;5031812;28;20091;-88
2022/03/03 08:00:26;;;;;;;25.13;16.90;;;7.20;1.00;;;;;;5013091;28;20029;-88
2022/03/03 08:02:53;;;;;;;23.50;17.27;;;7.40;1.00;;;;;;5030174;28;20092;-89
2022/03/03 08:05:21;;;;;;;22.73;16.48;;;7.40;1.00;;;;;;5031292;28;20029;-88
2022/03/03 08:07:48;;;;;;;23.52;17.38;;;7.50;1.00;;;;;;5030839;28;20053;-88
2022/03/03 08:10:15;;;;;;;22.17;17.17;;;7.70;99.90;;;;;;5030936;28;20029;-88
2022/03/03 08:12:42;;;;;;;24.10;17.70;;;7.90;1.00;;;;;;5031401;28;20033;-88
2022/03/03 08:15:10;;;;;;;29.40;17.90;;;8.10;1.00;;;;;;5031127;28;20029;-88
2022/03/03 08:17:36;;;;;;;21.88;17.23;;;7.70;1.00;;;;;;5030450;28;20566;-88
2022/03/03 08:20:07;;;;;;;25.83;17.90;;;8.10;99.90;;;;;;5030344;28;20030;-88
2022/03/03 08:22:33;;;;;;;27.90;18.05;;;7.70;1.00;;;;;;5030424;28;20041;-88
2022/03/03 08:24:59;;;;;;;25.13;18.38;;;8.00;99.90;;;;;;5017102;28;20040;-89
2022/03/03 08:27:26;;;;;;;26.67;18.45;;;8.00;1.00;;;;;;5017563;28;20029;-88
2022/03/03 08:29:53;;;;;;;26.20;17.90;;;8.10;99.90;;;;;;5034746;28;20384;-88
2022/03/03 08:32:21;;;;;;;24.55;18.15;;;7.90;1.00;;;;;;5033965;28;20024;-88
2022/03/03 08:35:00;;;;;;;23.48;18.25;;;8.20;1.00;;;;;;5034344;28;20436;-89
2022/03/03 08:37:34;;;;;;;26.30;18.05;;;8.10;1.00;;;;;;5019474;28;20382;-89
2022/03/03 08:40:01;;;;;;;25.02;18.00;;;8.20;99.90;;;;;;5034373;28;20084;-88
2022/03/03 08:42:37;;;;;;;26.80;18.52;;;8.30;99.90;;;;;;5032531;28;20505;-88
2022/03/03 08:45:05;;;;;;;26.50;18.63;;;8.40;1.00;;;;;;5034556;28;20030;-88
2022/03/03 08:47:32;;;;;;;29.55;16.35;;;8.60;99.90;;;;;;5033611;28;20030;-88
2022/03/03 08:50:08;;;;;;;27.20;16.23;;;8.70;99.90;;;;;;5033998;28;20033;-89
2022/03/03 08:52:38;;;;;;;23.23;15.90;;;9.20;1.00;;;;;;5033959;28;20022;-88
2022/03/03 08:55:06;;;;;;;21.40;15.73;;;9.20;99.90;;;;;;5016632;28;20021;-89
2022/03/03 08:57:31;;;;;;;21.92;14.32;;;10.50;99.90;;;;;;5034868;28;20052;-89
2022/03/03 08:59:57;;;;;;;21.13;15.02;;;10.30;99.90;;;;;;5033734;28;20022;-88
2022/03/03 09:02:23;;;;;;;21.92;14.25;;;10.70;99.90;;;;;;5033278;28;20038;-88
2022/03/03 09:04:48;;;;;;;21.00;13.40;;;10.30;99.90;;;;;;5034217;28;20405;-88
2022/03/03 09:07:14;;;;;;;18.88;13.30;;;11.00;99.90;;;;;;5033649;28;20079;-88
2022/03/03 09:09:41;;;;;;;23.45;14.73;;;11.20;99.90;;;;;;5034825;28;20034;-88
2022/03/03 09:12:08;;;;;;;20.35;14.55;;;11.20;99.90;;;;;;5016875;28;20486;-89
2022/03/03 09:14:34;;;;;;;19.80;13.52;;;11.40;99.90;;;;;;5033994;28;20037;-88
2022/03/03 09:17:00;;;;;;;17.50;12.70;;;11.60;99.90;;;;;;5033782;28;20033;-88
2022/03/03 09:19:26;;;;;;;17.95;11.93;;;11.90;99.90;;;;;;5033500;28;20405;-88
2022/03/03 09:21:52;;;;;;;16.98;12.32;;;12.60;99.90;;;;;;5033605;28;20033;-87
2022/03/03 09:24:18;;;;;;;16.08;11.93;;;12.50;99.90;;;;;;5017045;28;20124;-86
2022/03/03 09:26:43;;;;;;;20.70;13.43;;;13.90;99.90;;;;;;5033607;28;20025;-86
2022/03/03 09:29:09;;;;;;;18.67;13.95;;;13.70;99.90;;;;;;5033207;28;20045;-87
2022/03/03 09:31:34;;;;;;;18.42;13.57;;;14.80;99.90;;;;;;5034047;28;20501;-87
2022/03/03 09:34:00;;;;;;;17.45;13.57;;;15.00;99.90;;;;;;5015672;28;20362;-87
2022/03/03 09:36:26;;;;;;;20.88;14.82;;;15.00;99.90;;;;;;5032905;28;20053;-87
2022/03/03 09:38:52;;;;;;;19.02;14.77;;;15.90;99.90;;;;;;5033068;28;20533;-87
2022/03/03 09:41:18;;;;;;;18.55;14.77;;;16.20;99.90;;;;;;5033474;28;20378;-87
2022/03/03 09:43:43;;;;;;;23.35;14.63;;;17.90;99.90;;;;;;5032950;28;20041;-87
2022/03/03 09:46:10;;;;;;;17.40;13.75;;;18.90;99.90;;;;;;5033526;28;20040;-88
2022/03/03 09:48:37;;;;;;;16.88;12.85;;;19.80;99.90;;;;;;5034047;28;20104;-88
2022/03/03 09:51:03;;;;;;;17.52;12.85;;;19.90;99.90;;;;;;5016703;28;20020;-88
2022/03/03 09:53:29;;;;;;;17.80;14.18;;;20.20;99.90;;;;;;5032897;28;20551;-88
2022/03/03 09:55:55;;;;;;;18.15;13.48;;;20.70;99.90;;;;;;5032877;28;20033;-89
2022/03/03 09:58:20;;;;;;;18.60;13.45;;;20.60;99.90;;;;;;5033827;28;20080;-88
2022/03/03 10:00:46;;;;;;;19.63;15.23;;;19.90;99.90;;;;;;5015549;28;20489;-88
2022/03/03 10:03:18;;;;;;;16.80;14.10;;;20.50;99.90;;;;;;5016038;28;20481;-88
2022/03/03 10:05:56;;;;;;;18.27;13.60;;;20.60;99.90;;;;;;5016499;28;20493;-88
2022/03/03 10:08:24;;;;;;;17.40;13.90;;;21.20;99.90;;;;;;5032767;28;20029;-87
2022/03/03 10:10:53;;;;;;;17.48;14.00;;;21.50;99.90;;;;;;5032684;28;20396;-89
2022/03/03 10:13:19;;;;;;;16.13;13.55;;;21.30;99.90;;;;;;5016701;28;20444;-89
2022/03/03 10:15:52;;;;;;;18.60;15.18;;;21.80;99.90;;;;;;5016894;28;20029;-88
2022/03/03 10:18:18;;;;;;;17.58;15.75;;;22.00;99.90;;;;;;5032695;28;20044;-88
2022/03/03 10:20:51;;;;;;;20.67;15.80;;;22.10;99.90;;;;;;5031982;28;20053;-89
2022/03/03 10:23:19;;;;;;;17.30;15.50;;;22.00;99.90;;;;;;5032559;28;20512;-89
2022/03/03 10:25:46;;;;;;;17.52;13.75;;;21.90;99.90;;;;;;5032733;28;20010;-88
2022/03/03 10:28:17;;;;;;;18.13;13.77;;;22.60;99.90;;;;;;5014222;28;20207;-88
2022/03/03 10:31:00;;;;;;;18.83;14.73;;;22.90;99.90;;;;;;5015295;28;20053;-88
2022/03/03 10:33:30;;;;;;;15.50;13.93;;;24.00;99.90;;;;;;5032624;28;20117;-89
2022/03/03 10:36:15;;;;;;;18.33;15.10;;;24.80;99.90;;;;;;5032747;28;20033;-90
2022/03/03 10:38:56;;;;;;;15.88;13.57;;;25.50;99.90;;;;;;5032432;28;20061;-89
2022/03/03 10:41:37;;;;;;;15.18;13.57;;;26.20;99.90;;;;;;5032270;28;20025;-89
2022/03/03 10:44:12;;;;;;;18.98;14.15;;;26.30;99.90;;;;;;5032353;28;20516;-89
2022/03/03 10:47:11;;;;;;;14.55;13.05;;;26.20;99.90;;;;;;5015795;28;20505;-89
2022/03/03 10:49:48;;;;;;;17.15;13.75;;;26.60;99.90;;;;;;5005855;28;20026;-89
2022/03/03 10:52:20;;;;;;;16.77;14.05;;;26.40;99.90;;;;;;5032478;28;20029;-89
2022/03/03 10:55:06;;;;;;;16.55;13.85;;;27.40;99.90;;;;;;5027091;28;20033;-89
2022/03/03 10:57:33;;;;;;;16.17;14.48;;;27.60;99.90;;;;;;5031166;28;20065;-89
2022/03/03 11:00:06;;;;;;;15.75;13.88;;;27.00;99.90;;;;;;5031938;28;20037;-89
2022/03/03 11:02:33;;;;;;;17.35;14.63;;;27.20;99.90;;;;;;5031482;28;20041;-89
2022/03/03 11:04:59;;;;;;;16.35;14.75;;;26.30;99.90;;;;;;5031793;28;20033;-89
2022/03/03 11:07:25;;;;;;;17.27;14.57;;;26.10;99.90;;;;;;5015400;28;20029;-89
2022/03/03 11:09:51;;;;;;;15.88;14.35;;;26.40;99.90;;;;;;5032261;28;20041;-89
2022/03/03 11:12:19;;;;;;;17.88;14.43;;;26.40;99.90;;;;;;5015235;28;20034;-89
2022/03/03 11:14:47;;;;;;;17.35;15.57;;;27.50;99.90;;;;;;5031453;28;20033;-89
2022/03/03 11:17:14;;;;;;;15.48;14.02;;;27.90;99.90;;;;;;5031428;28;20018;-89
2022/03/03 11:19:41;;;;;;;16.77;15.18;;;27.60;99.90;;;;;;5015445;28;20037;-89
2022/03/03 11:22:07;;;;;;;16.17;14.52;;;27.50;99.90;;;;;;5031062;28;20064;-89
2022/03/03 11:24:39;;;;;;;17.33;15.43;;;27.20;99.90;;;;;;5015045;28;20084;-90
2022/03/03 11:27:05;;;;;;;16.00;14.43;;;27.20;99.90;;;;;;5031109;28;20485;-89
2022/03/03 11:29:37;;;;;;;16.77;14.32;;;27.00;99.90;;;;;;5031296;28;20018;-89
2022/03/03 11:32:12;;;;;;;16.88;15.23;;;27.60;99.90;;;;;;5031605;28;20032;-90
2022/03/03 11:34:37;;;;;;;17.08;15.27;;;27.40;99.90;;;;;;5031380;28;20029;-89
2022/03/03 11:37:17;;;;;;;16.92;15.32;;;28.20;99.90;;;;;;5014133;28;20401;-88
2022/03/03 11:40:03;;;;;;;18.08;14.82;;;27.50;99.90;;;;;;5031670;28;20446;-90
2022/03/03 11:42:36;;;;;;;16.40;14.77;;;26.90;99.90;;;;;;5029407;28;20041;-89
2022/03/03 11:45:15;;;;;;;18.67;15.07;;;27.20;99.90;;;;;;5031230;28;20490;-89
2022/03/03 11:47:45;;;;;;;15.70;14.00;;;27.60;99.90;;;;;;5031397;28;20036;-89
2022/03/03 11:50:16;;;;;;;16.95;14.45;;;28.20;99.90;;;;;;5031281;28;20034;-89
2022/03/03 11:52:53;;;;;;;17.45;15.00;;;29.00;99.90;;;;;;5017745;28;20087;-89
2022/03/03 11:55:28;;;;;;;15.20;13.80;;;29.40;99.90;;;;;;5015215;28;20033;-89
2022/03/03 11:58:08;;;;;;;16.08;14.50;;;30.00;99.90;;;;;;5028605;28;20025;-90
2022/03/03 12:01:08;;;;;;;15.68;14.18;;;29.30;99.90;;;;;;5030559;28;20021;-89
2022/03/03 12:04:01;;;;;;;17.90;14.20;;;27.90;99.90;;;;;;5028834;28;20052;-90
2022/03/03 12:06:43;;;;;;;16.35;13.90;;;26.80;99.90;;;;;;5031402;28;20028;-89
2022/03/03 12:09:38;;;;;;;15.50;14.02;;;27.20;99.90;;;;;;5030561;28;20030;-90
2022/03/03 12:12:13;;;;;;;17.60;15.63;;;27.40;99.90;;;;;;5029505;28;20049;-89
2022/03/03 12:15:00;;;;;;;16.58;14.80;;;27.40;99.90;;;;;;5031349;28;20030;-89
2022/03/03 12:17:47;;;;;;;16.50;14.90;;;27.70;99.90;;;;;;5030750;28;20033;-89
2022/03/03 12:20:27;;;;;;;17.55;15.43;;;27.80;99.90;;;;;;5030732;28;20136;-89
2022/03/03 12:23:08;;;;;;;16.23;14.63;;;28.00;99.90;;;;;;5030524;28;20120;-89
2022/03/03 12:25:54;;;;;;;18.45;14.68;;;28.20;99.90;;;;;;5014464;28;20022;-89
2022/03/03 12:28:40;;;;;;;15.07;13.05;;;28.50;99.90;;;;;;5015204;28;20040;-89
2022/03/03 12:31:27;;;;;;;14.75;13.25;;;29.10;99.90;;;;;;5031154;28;20052;-89
2022/03/03 12:34:01;;;;;;;14.57;12.65;;;28.90;99.90;;;;;;5027774;28;20114;-89
2022/03/03 12:36:29;;;;;;;13.68;12.27;;;29.00;99.90;;;;;;5030847;28;20037;-89
2022/03/03 12:38:56;;;;;;;13.23;11.85;;;28.50;99.90;;;;;;5009455;28;20046;-89
2022/03/03 12:41:29;;;;;;;13.98;11.40;;;28.00;99.90;;;;;;5011190;28;20569;-89
2022/03/03 12:44:12;;;;;;;13.68;12.23;;;28.40;99.90;;;;;;5010537;28;20033;-89
2022/03/03 12:46:38;;;;;;;16.50;12.77;;;28.40;99.90;;;;;;5010071;28;20037;-89